Time;durP1;ratioP1;P1;durP2;ratioP2;P2;SDS_P1;SDS_P2;PMS_P1;PMS_P2;Temp;Humidity;BMP_temperature;BMP_pressure;BME280_temperature;BME280_humidity;BME280_pressure;Samples;Min_cycle;Max_cycle;Signal;HPM_P1;HPM_P2
2021/03/30 00:02:12;;;;;;;4.85;3.38;;;8.10;99.90;;;;;;5056454;28;20228;-66
2021/03/30 00:04:38;;;;;;;7.97;3.60;;;8.10;99.90;;;;;;5056751;28;20192;-66
2021/03/30 00:07:04;;;;;;;4.28;3.50;;;8.00;99.90;;;;;;5057015;28;20197;-66
2021/03/30 00:09:31;;;;;;;4.15;3.45;;;7.90;99.90;;;;;;5056553;28;20188;-66
2021/03/30 00:11:57;;;;;;;9.18;4.20;;;7.90;99.90;;;;;;5056629;28;20246;-66
2021/03/30 00:14:23;;;;;;;6.43;3.97;;;8.00;99.90;;;;;;5056767;28;20193;-66
2021/03/30 00:16:50;;;;;;;4.10;3.70;;;7.80;99.90;;;;;;5055137;28;20656;-66
2021/03/30 00:19:17;;;;;;;4.05;3.55;;;7.80;99.90;;;;;;5056665;28;20200;-66
2021/03/30 00:21:44;;;;;;;6.32;4.05;;;7.70;99.90;;;;;;5056475;28;20271;-66
2021/03/30 00:24:10;;;;;;;7.40;3.63;;;7.70;99.90;;;;;;5056213;28;20195;-66
2021/03/30 00:26:37;;;;;;;5.18;3.85;;;7.60;99.90;;;;;;5056122;28;20211;-66
2021/03/30 00:29:07;;;;;;;4.35;3.15;;;7.90;99.90;;;;;;5056324;28;20551;-66
2021/03/30 00:31:33;;;;;;;5.75;3.35;;;7.90;99.90;;;;;;5056476;28;20251;-66
2021/03/30 00:34:00;;;;;;;3.80;3.28;;;7.90;99.90;;;;;;5056001;28;20204;-66
2021/03/30 00:36:26;;;;;;;4.55;3.00;;;7.80;99.90;;;;;;5056916;28;20192;-66
2021/03/30 00:38:53;;;;;;;4.80;3.60;;;7.60;99.90;;;;;;5055997;28;20203;-66
2021/03/30 00:41:20;;;;;;;3.97;3.58;;;7.50;99.90;;;;;;5055944;28;20219;-66
2021/03/30 00:43:48;;;;;;;8.75;3.90;;;7.40;99.90;;;;;;5055884;28;20217;-66
2021/03/30 00:46:18;;;;;;;5.05;3.38;;;7.10;99.90;;;;;;5056279;28;20243;-66
2021/03/30 00:48:49;;;;;;;4.82;3.60;;;7.10;99.90;;;;;;5054949;28;20244;-66
2021/03/30 00:51:17;;;;;;;4.75;4.10;;;7.10;99.90;;;;;;5055909;28;20229;-66
2021/03/30 00:53:45;;;;;;;7.72;3.80;;;7.00;99.90;;;;;;5053746;28;20211;-66
2021/03/30 00:56:11;;;;;;;5.15;3.42;;;6.80;99.90;;;;;;5055933;28;20291;-66
2021/03/30 00:58:38;;;;;;;8.57;3.83;;;6.60;99.90;;;;;;5055876;28;20197;-66
2021/03/30 01:01:04;;;;;;;6.40;3.90;;;6.50;99.90;;;;;;5056276;28;20219;-66
2021/03/30 01:03:32;;;;;;;5.10;3.95;;;6.50;99.90;;;;;;5055635;28;20244;-66
2021/03/30 01:06:00;;;;;;;10.45;3.90;;;6.40;99.90;;;;;;5055726;28;20193;-66
2021/03/30 01:08:46;;;;;;;4.13;3.60;;;6.40;99.90;;;;;;5055775;28;20232;-66
2021/03/30 01:11:44;;;;;;;6.43;3.80;;;6.40;99.90;;;;;;5055483;28;20196;-66
2021/03/30 01:14:19;;;;;;;7.28;3.60;;;6.30;99.90;;;;;;5055444;28;20680;-66
2021/03/30 01:16:52;;;;;;;4.07;3.47;;;6.40;99.90;;;;;;5055520;28;20180;-66
2021/03/30 01:19:52;;;;;;;5.90;4.53;;;6.40;99.90;;;;;;5055380;28;20288;-67
2021/03/30 01:22:50;;;;;;;5.03;3.70;;;6.40;99.90;;;;;;5055563;28;20228;-66
2021/03/30 01:25:19;;;;;;;3.85;3.50;;;6.50;99.90;;;;;;5055373;28;20208;-67
2021/03/30 01:28:17;;;;;;;8.20;3.25;;;6.50;99.90;;;;;;5055566;28;20200;-66
2021/03/30 01:30:48;;;;;;;6.25;3.55;;;6.40;99.90;;;;;;5055284;28;20686;-67
2021/03/30 01:33:19;;;;;;;4.63;3.17;;;6.30;99.90;;;;;;5054682;28;20555;-66
2021/03/30 01:35:53;;;;;;;5.80;3.75;;;6.30;99.90;;;;;;5054905;28;20261;-67
2021/03/30 01:38:22;;;;;;;3.65;3.35;;;6.40;99.90;;;;;;5053844;28;20201;-67
2021/03/30 01:40:53;;;;;;;5.55;4.38;;;6.60;99.90;;;;;;5055349;28;20207;-67
2021/03/30 01:43:20;;;;;;;5.47;3.83;;;6.60;99.90;;;;;;5055047;28;20234;-66
2021/03/30 01:45:52;;;;;;;5.28;3.72;;;6.60;99.90;;;;;;5055134;28;20208;-66
2021/03/30 01:48:21;;;;;;;4.70;4.30;;;6.40;99.90;;;;;;5054786;28;20204;-66
2021/03/30 01:50:48;;;;;;;4.75;3.92;;;6.40;99.90;;;;;;5054591;28;20700;-66
2021/03/30 01:53:16;;;;;;;7.28;3.97;;;6.50;99.90;;;;;;5053680;28;20213;-67
2021/03/30 01:55:45;;;;;;;6.95;4.07;;;6.50;99.90;;;;;;5054713;28;20574;-66
2021/03/30 01:58:15;;;;;;;5.40;3.35;;;6.50;99.90;;;;;;5054546;28;20298;-67
2021/03/30 02:00:41;;;;;;;4.28;3.58;;;6.50;99.90;;;;;;5054777;28;20197;-67
2021/03/30 02:03:10;;;;;;;4.07;3.60;;;6.60;99.90;;;;;;5054418;28;20228;-66
2021/03/30 02:05:40;;;;;;;9.15;3.97;;;6.60;99.90;;;;;;5054886;28;20177;-66
2021/03/30 02:08:09;;;;;;;5.40;3.75;;;6.50;99.90;;;;;;5054623;28;20192;-67
2021/03/30 02:13:05;;;;;;;4.07;3.70;;;6.40;99.90;;;;;;5054316;28;20274;-67
2021/03/30 02:15:31;;;;;;;5.60;3.92;;;6.40;99.90;;;;;;5054673;28;20196;-67
2021/03/30 02:18:05;;;;;;;3.83;3.45;;;6.40;99.90;;;;;;5053161;28;20173;-67
2021/03/30 02:20:48;;;;;;;4.03;3.08;;;6.20;99.90;;;;;;5053307;28;20227;-67
2021/03/30 02:23:19;;;;;;;11.27;3.70;;;6.20;99.90;;;;;;5052884;28;20239;-67
2021/03/30 02:25:47;;;;;;;3.92;3.63;;;6.30;99.90;;;;;;5054482;28;20584;-66
2021/03/30 02:28:19;;;;;;;29.77;18.27;;;6.10;99.90;;;;;;5054297;28;20212;-66
2021/03/30 02:30:49;;;;;;;8.15;5.40;;;6.10;99.90;;;;;;5053980;28;20307;-67
2021/03/30 02:33:23;;;;;;;5.20;4.57;;;5.80;99.90;;;;;;5054190;28;20211;-66
2021/03/30 02:35:55;;;;;;;4.05;3.65;;;6.00;99.90;;;;;;5054371;28;20179;-66
2021/03/30 02:38:22;;;;;;;11.15;4.72;;;6.00;99.90;;;;;;5054220;28;20183;-67
2021/03/30 02:40:52;;;;;;;4.30;3.92;;;6.00;99.90;;;;;;5054012;28;20211;-66
2021/03/30 02:43:23;;;;;;;4.65;3.70;;;6.00;99.90;;;;;;5053692;28;20220;-67
2021/03/30 02:45:51;;;;;;;7.78;4.15;;;6.10;99.90;;;;;;5053795;28;20199;-67
2021/03/30 02:48:19;;;;;;;6.07;3.78;;;5.90;99.90;;;;;;5053577;28;20197;-66
2021/03/30 02:50:46;;;;;;;4.00;3.60;;;5.70;99.90;;;;;;5053377;28;20232;-67
2021/03/30 02:53:14;;;;;;;4.80;3.60;;;5.60;99.90;;;;;;5053894;28;20215;-67
2021/03/30 02:55:41;;;;;;;5.60;4.40;;;5.50;99.90;;;;;;5053610;28;20200;-66
2021/03/30 02:58:09;;;;;;;3.97;3.20;;;5.50;99.90;;;;;;5053871;28;20219;-67
2021/03/30 03:00:44;;;;;;;5.60;3.70;;;5.50;99.90;;;;;;5058291;28;20195;-66
2021/03/30 03:03:12;;;;;;;5.68;4.05;;;5.50;99.90;;;;;;5073190;28;20216;-67
2021/03/30 03:05:39;;;;;;;4.28;3.70;;;5.60;99.90;;;;;;5073202;28;20200;-67
2021/03/30 03:08:07;;;;;;;11.95;3.85;;;5.60;99.90;;;;;;5072699;28;20199;-67
2021/03/30 03:10:36;;;;;;;4.65;4.25;;;5.60;99.90;;;;;;5059619;28;20188;-67
2021/03/30 03:13:04;;;;;;;6.25;3.70;;;5.50;99.90;;;;;;5072903;28;20656;-66
2021/03/30 03:15:36;;;;;;;4.15;3.85;;;5.50;99.90;;;;;;5072640;28;20192;-67
2021/03/30 03:18:03;;;;;;;4.82;3.90;;;5.50;99.90;;;;;;5073524;28;20202;-67
2021/03/30 03:20:34;;;;;;;9.50;4.57;;;5.50;99.90;;;;;;5073454;28;20168;-67
2021/03/30 03:23:01;;;;;;;6.55;4.15;;;5.40;99.90;;;;;;5073369;28;20613;-67
2021/03/30 03:25:30;;;;;;;4.80;4.03;;;5.30;99.90;;;;;;5073441;28;20647;-67
2021/03/30 03:28:00;;;;;;;4.78;3.22;;;5.30;99.90;;;;;;5073328;28;20540;-66
2021/03/30 03:30:27;;;;;;;4.32;3.60;;;5.20;99.90;;;;;;5073148;28;20220;-67
2021/03/30 03:33:03;;;;;;;5.35;4.55;;;5.00;99.90;;;;;;5073656;28;20219;-67
2021/03/30 03:35:29;;;;;;;7.00;4.57;;;5.00;99.90;;;;;;5073349;28;20180;-66
2021/03/30 03:38:02;;;;;;;4.78;3.72;;;5.00;99.90;;;;;;5072760;28;20626;-67
2021/03/30 03:40:30;;;;;;;4.22;3.70;;;5.00;99.90;;;;;;5073199;28;20188;-67
2021/03/30 03:42:59;;;;;;;3.70;3.30;;;4.80;99.90;;;;;;5073167;28;20219;-66
2021/03/30 03:45:26;;;;;;;9.82;4.32;;;4.60;99.90;;;;;;5073260;28;20210;-67
2021/03/30 03:47:52;;;;;;;4.40;4.00;;;4.40;99.90;;;;;;5073281;28;20558;-66
2021/03/30 03:50:20;;;;;;;5.43;4.93;;;4.20;99.90;;;;;;5072822;28;20314;-67
2021/03/30 03:52:53;;;;;;;12.23;6.20;;;4.10;99.90;;;;;;5073161;28;20184;-66
2021/03/30 03:55:21;;;;;;;6.25;5.68;;;4.20;99.90;;;;;;5072063;28;20184;-67
2021/03/30 03:58:05;;;;;;;5.25;4.75;;;4.20;99.90;;;;;;5073159;28;20184;-66
2021/03/30 04:00:33;;;;;;;4.60;4.10;;;4.30;99.90;;;;;;5073145;28;20674;-67
2021/03/30 04:03:08;;;;;;;4.60;4.20;;;4.10;99.90;;;;;;5073285;28;20220;-68
2021/03/30 04:05:47;;;;;;;11.02;4.43;;;4.00;99.90;;;;;;5071892;28;20234;-67
2021/03/30 04:08:16;;;;;;;5.60;4.20;;;3.90;99.90;;;;;;5073144;28;20190;-67
2021/03/30 04:10:46;;;;;;;6.85;4.40;;;4.00;99.90;;;;;;5072771;28;20219;-67
2021/03/30 04:13:20;;;;;;;6.80;4.63;;;4.10;99.90;;;;;;5072784;28;20217;-67
2021/03/30 04:15:47;;;;;;;4.78;3.70;;;4.20;99.90;;;;;;5072798;28;20271;-67
2021/03/30 04:18:14;;;;;;;6.45;5.70;;;4.20;99.90;;;;;;5055102;28;20207;-67
2021/03/30 04:20:41;;;;;;;8.55;4.57;;;4.30;99.90;;;;;;5071924;28;20188;-67
2021/03/30 04:23:07;;;;;;;7.28;3.65;;;4.40;99.90;;;;;;5072782;28;20216;-67
2021/03/30 04:25:35;;;;;;;10.15;4.90;;;4.30;99.90;;;;;;5072723;28;20192;-67
2021/03/30 04:28:02;;;;;;;6.55;4.30;;;4.30;99.90;;;;;;5073856;28;20188;-67
2021/03/30 04:30:28;;;;;;;7.00;3.95;;;4.20;99.90;;;;;;5076340;28;20293;-67
2021/03/30 04:32:57;;;;;;;4.78;3.90;;;4.30;99.90;;;;;;5076317;28;20196;-67
2021/03/30 04:35:26;;;;;;;9.02;3.38;;;4.40;99.90;;;;;;5076263;28;20678;-67
2021/03/30 04:37:52;;;;;;;4.25;3.85;;;4.30;99.90;;;;;;5075155;28;20199;-67
2021/03/30 04:40:18;;;;;;;5.22;3.80;;;4.30;99.90;;;;;;5076106;28;20200;-67
2021/03/30 04:42:47;;;;;;;5.05;4.25;;;4.40;99.90;;;;;;5074820;28;20686;-67
2021/03/30 04:45:18;;;;;;;5.25;4.40;;;4.40;99.90;;;;;;5076204;28;20628;-66
2021/03/30 04:47:45;;;;;;;7.53;5.90;;;4.50;99.90;;;;;;5076141;28;20199;-67
2021/03/30 04:50:11;;;;;;;4.47;4.18;;;4.50;99.90;;;;;;5074578;28;20242;-67
2021/03/30 04:52:38;;;;;;;4.15;3.75;;;4.50;99.90;;;;;;5076068;28;20173;-67
2021/03/30 04:55:08;;;;;;;4.70;4.10;;;4.50;99.90;;;;;;5075993;28;20238;-67
2021/03/30 04:57:34;;;;;;;5.85;3.92;;;4.50;99.90;;;;;;5075978;28;20215;-67
2021/03/30 05:00:05;;;;;;;6.13;4.47;;;4.40;99.90;;;;;;5076026;28;20203;-67
2021/03/30 05:02:31;;;;;;;6.63;4.55;;;4.30;99.90;;;;;;5075732;28;20636;-67
2021/03/30 05:05:00;;;;;;;4.53;4.05;;;4.20;99.90;;;;;;5075781;28;20639;-67
2021/03/30 05:07:33;;;;;;;4.68;3.45;;;4.20;99.90;;;;;;5075730;28;20199;-67
2021/03/30 05:09:59;;;;;;;6.47;4.00;;;4.20;99.90;;;;;;5075473;28;20204;-67
2021/03/30 05:12:26;;;;;;;8.25;4.25;;;4.20;99.90;;;;;;5076024;28;20211;-67
2021/03/30 05:14:53;;;;;;;5.95;4.35;;;4.10;99.90;;;;;;5075621;28;20196;-67
2021/03/30 05:17:19;;;;;;;5.55;4.10;;;4.20;99.90;;;;;;5075479;28;20203;-67
2021/03/30 05:19:46;;;;;;;6.53;5.38;;;4.20;99.90;;;;;;5075571;28;20191;-67
2021/03/30 05:22:12;;;;;;;4.88;4.25;;;4.30;99.90;;;;;;5075516;28;20208;-67
2021/03/30 05:24:40;;;;;;;6.50;4.35;;;4.30;99.90;;;;;;5076049;28;20215;-67
2021/03/30 05:27:07;;;;;;;4.90;4.22;;;4.30;99.90;;;;;;5075349;28;20184;-68
2021/03/30 05:29:43;;;;;;;8.10;5.03;;;4.30;99.90;;;;;;5073603;28;20196;-68
2021/03/30 05:32:13;;;;;;;14.07;7.95;;;4.40;99.90;;;;;;5074982;28;20204;-67
2021/03/30 05:34:42;;;;;;;5.53;3.60;;;4.40;99.90;;;;;;5075238;28;20229;-67
2021/03/30 05:37:11;;;;;;;10.63;5.20;;;4.40;99.90;;;;;;5074929;28;20180;-67
2021/03/30 05:39:38;;;;;;;11.20;4.60;;;4.40;99.90;;;;;;5073454;28;20219;-68
2021/03/30 05:42:05;;;;;;;7.97;4.60;;;4.30;99.90;;;;;;5075355;28;20552;-68
2021/03/30 05:44:32;;;;;;;7.63;4.75;;;4.40;99.90;;;;;;5075176;28;20250;-67
2021/03/30 05:47:22;;;;;;;8.25;5.43;;;4.40;99.90;;;;;;5075125;28;20678;-67
2021/03/30 05:49:49;;;;;;;5.40;4.70;;;4.40;99.90;;;;;;5074685;28;20207;-68
2021/03/30 05:52:37;;;;;;;5.88;4.15;;;4.50;99.90;;;;;;5074526;28;20200;-68
2021/03/30 05:55:05;;;;;;;6.65;4.72;;;4.50;99.90;;;;;;5074998;28;20644;-67
2021/03/30 05:57:33;;;;;;;8.70;4.68;;;4.60;99.90;;;;;;5074554;28;20557;-68
2021/03/30 06:00:03;;;;;;;4.22;3.90;;;4.60;99.90;;;;;;5073362;28;20195;-68
2021/03/30 06:02:53;;;;;;;6.82;4.75;;;4.60;99.90;;;;;;5075465;28;20192;-68
2021/03/30 06:05:20;;;;;;;6.72;5.18;;;4.50;99.90;;;;;;5074797;28;20531;-68
2021/03/30 06:07:58;;;;;;;14.38;5.50;;;4.50;99.90;;;;;;5075364;28;20176;-68
2021/03/30 06:10:29;;;;;;;6.70;5.55;;;4.40;99.90;;;;;;5074510;28;20176;-68
2021/03/30 06:12:59;;;;;;;10.75;5.68;;;4.50;99.90;;;;;;5073227;28;20176;-68
2021/03/30 06:15:30;;;;;;;8.40;6.13;;;4.60;99.90;;;;;;5074459;28;20200;-67
2021/03/30 06:17:59;;;;;;;6.00;5.40;;;4.80;99.90;;;;;;5074134;28;20192;-68
2021/03/30 06:20:35;;;;;;;9.13;5.82;;;5.00;99.90;;;;;;5074003;28;20199;-68
2021/03/30 06:23:06;;;;;;;7.53;5.03;;;5.20;99.90;;;;;;5074240;28;20559;-67
2021/03/30 06:25:43;;;;;;;8.43;4.93;;;5.50;99.90;;;;;;5073932;28;20199;-67
2021/03/30 06:28:10;;;;;;;18.65;6.55;;;5.80;99.90;;;;;;5074058;28;20188;-67
2021/03/30 06:30:53;;;;;;;18.08;8.70;;;6.00;99.90;;;;;;5073438;28;20224;-68
2021/03/30 06:33:20;;;;;;;9.70;5.50;;;6.20;99.90;;;;;;5073840;28;20214;-67
2021/03/30 06:35:46;;;;;;;10.98;5.53;;;6.40;99.90;;;;;;5074335;28;20207;-68
2021/03/30 06:38:14;;;;;;;8.25;6.05;;;6.70;99.90;;;;;;5058957;28;20188;-68
2021/03/30 06:40:46;;;;;;;8.65;5.30;;;6.90;99.90;;;;;;5073494;28;20677;-68
2021/03/30 06:44:25;;;;;;;19.98;7.10;;;6.80;99.90;;;;;;5073016;28;20215;-68
2021/03/30 06:46:09;;;;;;;13.15;6.75;;;6.80;99.90;;;;;;5073159;28;20196;-67
2021/03/30 06:48:39;;;;;;;19.75;7.85;;;6.90;99.90;;;;;;5073318;28;20651;-67
2021/03/30 06:51:20;;;;;;;14.90;7.05;;;7.00;99.90;;;;;;5072361;28;20224;-68
2021/03/30 06:53:47;;;;;;;10.63;6.88;;;7.20;99.90;;;;;;5073309;28;20192;-68
2021/03/30 06:56:14;;;;;;;10.73;7.55;;;7.30;99.90;;;;;;5073003;28;20192;-68
2021/03/30 06:59:00;;;;;;;9.13;6.40;;;7.60;99.90;;;;;;5072865;28;20559;-68
2021/03/30 07:01:28;;;;;;;11.57;6.00;;;7.80;99.90;;;;;;5072913;28;20556;-67
2021/03/30 07:03:56;;;;;;;10.38;5.65;;;8.00;99.90;;;;;;5058364;28;20231;-68
2021/03/30 07:06:26;;;;;;;5.53;4.70;;;8.30;99.90;;;;;;5052595;28;20205;-68
2021/03/30 07:08:53;;;;;;;6.32;4.90;;;8.40;99.90;;;;;;5053129;28;20275;-68
2021/03/30 07:11:20;;;;;;;8.20;6.50;;;8.50;99.90;;;;;;5070621;28;20196;-68
2021/03/30 07:13:49;;;;;;;11.38;6.85;;;8.50;99.90;;;;;;5072800;28;20196;-68
2021/03/30 07:16:27;;;;;;;10.32;6.30;;;8.60;99.90;;;;;;5072694;28;20188;-68
2021/03/30 07:18:57;;;;;;;12.10;6.80;;;8.70;99.90;;;;;;5073205;28;20203;-68
2021/03/30 07:21:31;;;;;;;12.18;7.53;;;8.80;99.90;;;;;;5063288;28;20694;-67
2021/03/30 07:24:03;;;;;;;9.50;5.75;;;8.90;99.90;;;;;;5061720;28;20234;-68
2021/03/30 07:26:38;;;;;;;9.45;6.40;;;9.00;99.90;;;;;;5072240;28;20200;-68
2021/03/30 07:29:11;;;;;;;11.65;7.30;;;9.10;99.90;;;;;;5072875;28;20218;-68
2021/03/30 07:31:48;;;;;;;10.63;6.93;;;9.30;99.90;;;;;;5069925;28;20227;-68
2021/03/30 07:34:26;;;;;;;9.13;6.35;;;9.60;99.90;;;;;;5056151;28;20216;-68
2021/03/30 07:36:59;;;;;;;8.85;6.38;;;9.80;99.90;;;;;;5058290;28;20275;-68
2021/03/30 07:39:29;;;;;;;7.68;6.78;;;9.80;99.90;;;;;;5061392;28;20196;-68
2021/03/30 07:41:57;;;;;;;9.52;6.05;;;10.00;99.90;;;;;;5070148;28;20188;-68
2021/03/30 07:44:27;;;;;;;11.38;5.35;;;10.10;99.90;;;;;;5072522;28;20681;-67
2021/03/30 07:46:55;;;;;;;10.55;6.10;;;10.40;99.90;;;;;;5072525;28;20192;-67
2021/03/30 07:49:28;;;;;;;12.65;9.18;;;10.50;99.90;;;;;;5072538;28;20558;-68
2021/03/30 07:52:15;;;;;;;7.30;6.60;;;10.60;99.90;;;;;;5072387;28;20228;-68
2021/03/30 07:55:18;;;;;;;15.18;6.90;;;10.80;99.90;;;;;;5072405;28;20589;-68
2021/03/30 07:58:13;;;;;;;13.82;6.13;;;10.90;99.90;;;;;;5072886;28;20203;-67
2021/03/30 08:00:39;;;;;;;8.38;5.72;;;11.10;99.90;;;;;;5073376;28;20564;-67
2021/03/30 08:03:10;;;;;;;10.98;6.30;;;11.40;99.90;;;;;;5075177;28;20222;-67
2021/03/30 08:05:38;;;;;;;7.38;5.70;;;11.60;99.90;;;;;;5075319;28;20544;-67
2021/03/30 08:08:21;;;;;;;5.80;5.13;;;11.60;99.90;;;;;;5069247;28;20698;-67
2021/03/30 08:10:53;;;;;;;6.93;5.13;;;11.80;99.90;;;;;;5066384;28;20209;-66
2021/03/30 08:13:35;;;;;;;9.90;5.53;;;11.90;99.90;;;;;;5054607;28;20227;-67
2021/03/30 08:16:08;;;;;;;14.80;6.40;;;12.00;99.90;;;;;;5059557;28;20318;-67
2021/03/30 08:18:42;;;;;;;6.60;5.18;;;12.20;99.90;;;;;;5072172;28;20223;-67
2021/03/30 08:21:15;;;;;;;11.85;7.38;;;12.30;99.90;;;;;;5076287;28;20184;-67
2021/03/30 08:24:06;;;;;;;8.35;5.68;;;12.30;99.90;;;;;;5076647;28;20200;-67
2021/03/30 08:26:35;;;;;;;13.95;7.18;;;12.50;99.90;;;;;;5075898;28;20200;-67
2021/03/30 08:29:09;;;;;;;7.47;6.78;;;12.50;99.90;;;;;;5076859;28;20655;-67
2021/03/30 08:31:49;;;;;;;10.85;5.65;;;12.50;99.90;;;;;;5075993;28;20613;-67
2021/03/30 08:34:19;;;;;;;11.38;6.50;;;12.60;99.90;;;;;;5076199;28;20535;-66
2021/03/30 08:36:45;;;;;;;8.10;7.30;;;12.80;99.90;;;;;;5076542;28;20658;-67
2021/03/30 08:39:20;;;;;;;10.55;8.10;;;12.90;99.90;;;;;;5076050;28;20191;-67
2021/03/30 08:41:46;;;;;;;11.27;8.30;;;13.00;99.90;;;;;;5076105;28;20199;-67
2021/03/30 08:44:32;;;;;;;14.60;7.88;;;13.20;99.90;;;;;;5075906;28;20199;-67
2021/03/30 08:47:00;;;;;;;12.30;6.80;;;13.40;99.90;;;;;;5075914;28;20204;-67
2021/03/30 08:49:37;;;;;;;8.27;6.75;;;13.50;99.90;;;;;;5076348;28;20627;-66
2021/03/30 08:52:10;;;;;;;13.90;8.15;;;13.50;99.90;;;;;;5074528;28;20236;-68
2021/03/30 08:54:54;;;;;;;8.23;6.70;;;13.50;99.90;;;;;;5075773;28;20648;-68
2021/03/30 08:57:30;;;;;;;14.33;7.63;;;13.60;99.90;;;;;;5076144;28;20215;-66
2021/03/30 09:00:00;;;;;;;7.37;6.57;;;13.90;99.90;;;;;;5076072;28;20637;-67
2021/03/30 09:02:28;;;;;;;12.57;9.20;;;13.90;99.90;;;;;;5075980;28;20629;-67
2021/03/30 09:04:55;;;;;;;12.07;6.70;;;13.90;99.90;;;;;;5074713;28;20212;-67
2021/03/30 09:07:23;;;;;;;9.83;7.00;;;14.10;99.90;;;;;;5075981;28;20617;-67
2021/03/30 09:10:02;;;;;;;12.27;6.85;;;14.20;99.90;;;;;;5075584;28;20595;-67
2021/03/30 09:12:29;;;;;;;10.30;6.37;;;14.40;99.90;;;;;;5076033;28;20176;-68
2021/03/30 09:15:06;;;;;;;7.63;6.03;;;14.50;99.90;;;;;;5040479;28;20645;-66
2021/03/30 09:18:13;;;;;;;10.07;6.30;;;14.50;99.90;;;;;;5075626;28;20564;-66
2021/03/30 09:20:39;;;;;;;8.60;6.63;;;14.60;99.90;;;;;;5056565;28;20642;-66
2021/03/30 09:23:25;;;;;;;11.40;7.07;;;15.00;99.90;;;;;;5074934;28;20617;-66
2021/03/30 09:25:57;;;;;;;9.37;6.47;;;15.10;99.90;;;;;;5075414;28;20606;-66
2021/03/30 09:28:24;;;;;;;7.20;6.40;;;15.20;99.90;;;;;;5074090;28;20598;-67
2021/03/30 09:30:53;;;;;;;8.60;7.60;;;15.40;99.90;;;;;;5075170;28;20630;-67
2021/03/30 09:33:20;;;;;;;11.80;5.83;;;15.50;99.90;;;;;;5075240;28;20614;-67
2021/03/30 09:35:49;;;;;;;14.43;8.07;;;15.60;99.90;;;;;;5074961;28;20705;-67
2021/03/30 09:38:16;;;;;;;9.63;6.27;;;15.70;99.90;;;;;;5074963;28;20601;-66
2021/03/30 09:40:46;;;;;;;8.60;6.17;;;15.80;99.90;;;;;;5075726;28;20706;-68
2021/03/30 09:43:18;;;;;;;9.00;6.70;;;16.00;99.90;;;;;;5074893;28;20594;-68
2021/03/30 09:45:49;;;;;;;8.67;6.23;;;16.00;99.90;;;;;;5074704;28;20641;-68
2021/03/30 09:48:19;;;;;;;9.33;5.83;;;16.20;99.90;;;;;;5074871;28;20602;-67
2021/03/30 09:50:52;;;;;;;11.50;6.90;;;16.40;99.90;;;;;;5075271;28;21172;-67
2021/03/30 09:53:20;;;;;;;10.57;7.33;;;16.60;99.90;;;;;;5075599;28;20588;-68
2021/03/30 09:55:47;;;;;;;11.27;6.97;;;16.70;99.90;;;;;;5074840;28;20634;-67
2021/03/30 09:58:15;;;;;;;11.80;7.10;;;16.80;99.90;;;;;;5074829;28;21055;-67
2021/03/30 10:00:57;;;;;;;17.90;6.50;;;16.90;99.90;;;;;;5074622;28;20662;-68
2021/03/30 10:03:24;;;;;;;9.23;6.17;;;17.10;99.90;;;;;;5075030;28;20600;-67
2021/03/30 10:05:51;;;;;;;9.07;7.07;;;17.10;99.90;;;;;;5074503;28;20654;-67
2021/03/30 10:08:19;;;;;;;8.97;7.43;;;17.30;99.90;;;;;;5074370;28;20606;-67
2021/03/30 10:10:53;;;;;;;10.00;6.83;;;17.40;99.90;;;;;;5074427;28;20626;-67
2021/03/30 10:13:26;;;;;;;9.50;7.50;;;17.50;99.90;;;;;;5074234;28;20709;-68
2021/03/30 10:15:54;;;;;;;16.00;8.00;;;17.60;99.90;;;;;;5074634;28;20716;-68
2021/03/30 10:18:26;;;;;;;10.07;6.83;;;17.70;99.90;;;;;;5074523;28;20639;-68
2021/03/30 10:20:58;;;;;;;12.40;6.83;;;17.80;99.90;;;;;;5074481;28;20566;-67
2021/03/30 10:23:28;;;;;;;7.17;6.47;;;17.90;99.90;;;;;;5074552;28;21175;-67
2021/03/30 10:25:57;;;;;;;15.07;6.70;;;18.20;99.90;;;;;;5073076;28;21214;-67
2021/03/30 10:28:30;;;;;;;12.43;7.47;;;18.30;99.90;;;;;;5074362;28;21230;-67
2021/03/30 10:31:02;;;;;;;11.43;6.20;;;18.20;99.90;;;;;;5074409;28;20646;-67
2021/03/30 10:33:50;;;;;;;10.27;6.93;;;18.10;99.90;;;;;;5073963;28;21184;-66
2021/03/30 10:36:17;;;;;;;9.50;6.30;;;18.20;99.90;;;;;;5074388;28;20874;-66
2021/03/30 10:39:06;;;;;;;12.37;5.90;;;18.50;99.90;;;;;;5073932;28;20993;-66
2021/03/30 10:41:38;;;;;;;11.93;6.60;;;18.80;99.90;;;;;;5074237;28;20957;-66
2021/03/30 10:44:06;;;;;;;10.70;6.20;;;18.80;99.90;;;;;;5074220;28;20597;-66
2021/03/30 10:46:47;;;;;;;10.00;6.50;;;18.90;99.90;;;;;;5073927;28;21075;-66
2021/03/30 10:49:16;;;;;;;14.47;6.73;;;19.10;99.90;;;;;;5073660;28;20649;-67
2021/03/30 10:51:46;;;;;;;11.63;6.13;;;19.20;99.90;;;;;;5073565;28;20637;-67
2021/03/30 10:54:19;;;;;;;10.50;6.80;;;19.30;99.90;;;;;;5073712;28;20705;-66
2021/03/30 10:56:46;;;;;;;19.90;7.03;;;19.60;99.90;;;;;;5073712;28;20610;-66
2021/03/30 10:59:15;;;;;;;11.77;5.73;;;19.60;99.90;;;;;;5073642;28;20621;-66
2021/03/30 11:01:42;;;;;;;11.07;6.63;;;19.70;99.90;;;;;;5073558;28;20963;-66
2021/03/30 11:04:10;;;;;;;12.40;7.93;;;19.80;99.90;;;;;;5073942;28;20657;-66
2021/03/30 11:06:36;;;;;;;7.33;6.50;;;20.10;99.90;;;;;;5073434;28;20620;-67
2021/03/30 11:09:05;;;;;;;10.93;6.93;;;20.10;99.90;;;;;;5073364;28;20613;-67
2021/03/30 11:11:35;;;;;;;8.77;6.23;;;20.10;99.90;;;;;;5073757;28;20632;-67
2021/03/30 11:14:02;;;;;;;6.27;5.67;;;20.50;99.90;;;;;;5073310;28;21157;-68
2021/03/30 11:16:30;;;;;;;10.00;5.87;;;21.00;99.90;;;;;;5073482;28;20598;-65
2021/03/30 11:18:56;;;;;;;13.20;6.27;;;21.70;99.90;;;;;;5073558;28;20610;-65
2021/03/30 11:21:24;;;;;;;7.67;6.80;;;22.40;99.90;;;;;;5073682;28;20630;-65
2021/03/30 11:23:59;;;;;;;12.00;5.70;;;22.20;99.90;;;;;;5073133;28;20668;-65
2021/03/30 11:26:28;;;;;;;12.53;6.40;;;22.60;99.90;;;;;;5073296;28;20606;-66
2021/03/30 11:28:56;;;;;;;11.07;5.97;;;22.60;99.90;;;;;;5073921;28;20614;-67
2021/03/30 11:40:03;;;;;;;9.27;5.17;;;23.90;99.90;;;;;;5075272;28;20629;-67
2021/03/30 11:42:29;;;;;;;6.60;5.23;;;23.10;99.90;;;;;;5077792;28;20648;-67
2021/03/30 11:44:56;;;;;;;11.00;5.80;;;23.90;99.90;;;;;;5077425;28;20660;-65
2021/03/30 11:47:22;;;;;;;7.43;5.60;;;24.00;99.90;;;;;;5077811;28;20684;-66
2021/03/30 11:49:51;;;;;;;9.20;5.07;;;23.90;99.90;;;;;;5077086;28;21152;-67
2021/03/30 11:52:18;;;;;;;8.63;5.60;;;23.80;99.90;;;;;;5077226;28;20614;-67
2021/03/30 11:54:45;;;;;;;8.47;5.33;;;24.40;99.90;;;;;;5075312;28;20618;-68
2021/03/30 11:57:11;;;;;;;7.40;5.20;;;24.70;99.90;;;;;;5057350;28;20629;-67
2021/03/30 11:59:38;;;;;;;7.00;4.70;;;24.50;99.90;;;;;;5070942;28;20638;-67
2021/03/30 12:02:08;;;;;;;8.57;5.03;;;24.70;99.90;;;;;;5076584;28;20622;-66
2021/03/30 12:04:34;;;;;;;5.87;4.53;;;25.10;99.90;;;;;;5075937;28;20660;-67
2021/03/30 12:07:01;;;;;;;8.63;4.63;;;25.60;99.90;;;;;;5062378;28;20624;-67
2021/03/30 12:09:27;;;;;;;7.87;5.90;;;25.20;99.90;;;;;;5076198;28;20609;-68
2021/03/30 12:11:53;;;;;;;14.03;5.23;;;25.20;99.90;;;;;;5076506;28;20650;-66
2021/03/30 12:14:20;;;;;;;5.47;4.63;;;26.00;99.90;;;;;;5076362;28;20621;-66
2021/03/30 12:16:49;;;;;;;6.17;4.43;;;25.40;99.90;;;;;;5076232;28;20669;-67
2021/03/30 12:19:18;;;;;;;6.50;4.97;;;25.20;99.90;;;;;;5075256;28;21009;-66
2021/03/30 12:21:46;;;;;;;5.17;4.73;;;25.40;99.90;;;;;;5074823;28;20630;-67
2021/03/30 12:24:13;;;;;;;7.07;3.97;;;25.50;99.90;;;;;;5064297;28;20627;-67
2021/03/30 12:26:54;;;;;;;5.83;4.67;;;26.20;99.90;;;;;;5076028;28;21011;-66
2021/03/30 12:29:21;;;;;;;10.60;4.57;;;26.70;99.90;;;;;;5074850;28;20626;-67
2021/03/30 12:31:50;;;;;;;7.90;4.10;;;27.10;99.90;;;;;;5075813;28;20637;-67
2021/03/30 12:34:16;;;;;;;8.90;4.00;;;26.50;99.90;;;;;;5076364;28;20606;-67
2021/03/30 12:36:43;;;;;;;4.03;3.73;;;27.00;99.90;;;;;;5076619;28;20590;-67
2021/03/30 12:39:10;;;;;;;4.60;3.90;;;27.30;99.90;;;;;;5076853;28;21167;-66
2021/03/30 12:41:39;;;;;;;13.33;4.80;;;27.10;99.90;;;;;;5075451;28;21169;-67
2021/03/30 12:44:06;;;;;;;5.10;4.53;;;27.30;99.90;;;;;;5076548;28;20618;-69
2021/03/30 12:46:32;;;;;;;5.70;4.47;;;27.30;99.90;;;;;;5076449;28;21056;-68
2021/03/30 12:48:58;;;;;;;4.30;3.90;;;28.20;99.90;;;;;;5075109;28;20604;-68
2021/03/30 12:51:27;;;;;;;7.53;4.00;;;28.50;99.90;;;;;;5076223;28;20637;-68
2021/03/30 12:53:56;;;;;;;8.73;4.60;;;28.70;99.90;;;;;;5075141;28;20642;-69
2021/03/30 12:56:33;;;;;;;7.63;4.17;;;28.50;99.90;;;;;;5076513;28;20614;-68
2021/03/30 12:59:02;;;;;;;6.77;4.60;;;28.30;99.90;;;;;;5076444;28;20644;-68
2021/03/30 13:01:31;;;;;;;9.33;4.10;;;27.30;99.90;;;;;;5076108;28;21182;-68
2021/03/30 13:04:00;;;;;;;10.03;4.50;;;28.30;99.90;;;;;;5075958;28;20694;-67
2021/03/30 13:06:30;;;;;;;6.37;3.47;;;28.70;99.90;;;;;;5076023;28;20653;-67
2021/03/30 13:08:56;;;;;;;7.00;4.40;;;29.00;99.90;;;;;;5076415;28;20605;-68
2021/03/30 13:11:24;;;;;;;4.70;3.07;;;28.10;99.90;;;;;;5075702;28;20967;-67
2021/03/30 13:13:50;;;;;;;3.93;3.10;;;28.30;99.90;;;;;;5075786;28;20594;-68
2021/03/30 13:16:17;;;;;;;4.03;3.47;;;28.90;99.90;;;;;;5076103;28;20614;-68
2021/03/30 13:18:45;;;;;;;8.37;3.87;;;29.20;99.90;;;;;;5074343;28;21035;-68
2021/03/30 13:21:11;;;;;;;3.80;3.50;;;29.30;99.90;;;;;;5076144;28;20594;-67